Time;durP1;ratioP1;P1;durP2;ratioP2;P2;SDS_P1;SDS_P2;PMS_P1;PMS_P2;Temp;Humidity;BMP_temperature;BMP_pressure;BME280_temperature;BME280_humidity;BME280_pressure;Samples;Min_cycle;Max_cycle;Signal;HPM_P1;HPM_P2
2024/01/07 00:01:48;;;;;;;818.70;755.03;;;-0.10;99.90;;;;;;4995381;28;20451;-81
2024/01/07 00:04:15;;;;;;;822.80;758.50;;;1.10;99.90;;;;;;5005314;28;20054;-81
2024/01/07 00:06:40;;;;;;;846.00;777.88;;;0.50;99.90;;;;;;5006114;28;20050;-80
2024/01/07 00:09:06;;;;;;;869.92;799.58;;;-0.20;99.90;;;;;;5022132;28;20457;-81
2024/01/07 00:11:32;;;;;;;838.42;773.17;;;0.80;99.90;;;;;;5001734;28;20077;-81
2024/01/07 00:13:58;;;;;;;887.55;813.40;;;-0.20;99.90;;;;;;5003576;28;20046;-81
2024/01/07 00:16:24;;;;;;;852.25;784.17;;;-0.20;99.90;;;;;;5001515;28;20103;-81
2024/01/07 00:18:49;;;;;;;841.67;774.28;;;0.60;99.90;;;;;;5003324;28;20045;-81
2024/01/07 00:21:15;;;;;;;798.72;737.15;;;0.70;99.90;;;;;;5004315;28;20069;-80
2024/01/07 00:23:41;;;;;;;830.13;764.72;;;0.50;99.90;;;;;;5002610;28;20425;-80
2024/01/07 00:26:07;;;;;;;795.97;735.50;;;0.20;99.90;;;;;;4973748;28;20057;-81
2024/01/07 00:28:33;;;;;;;774.55;715.22;;;-0.30;99.90;;;;;;4998402;28;20057;-80
2024/01/07 00:30:58;;;;;;;846.38;777.38;;;-0.10;99.90;;;;;;5003742;28;20482;-81
2024/01/07 00:33:24;;;;;;;761.15;704.35;;;0.50;99.90;;;;;;5003074;28;20387;-80
2024/01/07 00:35:50;;;;;;;781.28;721.50;;;-0.30;99.90;;;;;;4999860;28;20042;-81
2024/01/07 00:38:15;;;;;;;799.65;737.65;;;-0.10;99.90;;;;;;4992159;28;20050;-80
2024/01/07 00:40:41;;;;;;;764.95;707.22;;;-0.30;99.90;;;;;;4983936;28;20046;-81
2024/01/07 00:43:07;;;;;;;774.85;715.33;;;-0.30;99.90;;;;;;4999397;28;20049;-80
2024/01/07 00:45:32;;;;;;;802.80;739.65;;;1.00;99.90;;;;;;5002655;28;20053;-81
2024/01/07 00:47:58;;;;;;;810.58;745.67;;;1.10;99.90;;;;;;4992875;28;20120;-81
2024/01/07 00:50:24;;;;;;;839.92;773.75;;;-0.30;99.90;;;;;;4984262;28;20053;-81
2024/01/07 00:52:49;;;;;;;838.53;773.05;;;-0.30;99.90;;;;;;4992311;28;20087;-81
2024/01/07 00:55:15;;;;;;;836.80;770.47;;;1.00;99.90;;;;;;5002588;28;20068;-81
2024/01/07 00:57:41;;;;;;;812.47;749.42;;;-0.30;99.90;;;;;;5003895;28;20046;-81
2024/01/07 01:00:07;;;;;;;859.80;791.40;;;0.70;99.90;;;;;;4987696;28;20058;-80
2024/01/07 01:02:33;;;;;;;825.85;761.05;;;-0.20;99.90;;;;;;4993359;28;20627;-80
2024/01/07 01:04:59;;;;;;;887.67;814.30;;;0.70;99.90;;;;;;4985824;28;20034;-80
2024/01/07 01:07:25;;;;;;;856.60;788.85;;;0.10;99.90;;;;;;4982424;28;20043;-81
2024/01/07 01:09:50;;;;;;;877.72;805.33;;;0.00;99.90;;;;;;4985097;28;20473;-80
2024/01/07 01:12:16;;;;;;;869.58;798.80;;;1.00;99.90;;;;;;4982465;28;20053;-82
2024/01/07 01:14:42;;;;;;;843.65;777.60;;;0.40;99.90;;;;;;4984697;28;20054;-81
2024/01/07 01:17:08;;;;;;;864.03;793.97;;;1.10;99.90;;;;;;4985329;28;20048;-80
2024/01/07 01:19:33;;;;;;;847.97;779.55;;;0.30;99.90;;;;;;4982404;28;20527;-81
2024/01/07 01:21:59;;;;;;;840.00;773.88;;;0.80;99.90;;;;;;4984076;28;20062;-81
2024/01/07 01:24:25;;;;;;;833.25;768.05;;;0.70;99.90;;;;;;5016074;28;20466;-81
2024/01/07 01:26:51;;;;;;;849.65;781.53;;;1.20;99.90;;;;;;4979291;28;20050;-81
2024/01/07 01:29:16;;;;;;;793.45;732.17;;;0.10;99.90;;;;;;4984534;28;20462;-81
2024/01/07 01:31:42;;;;;;;726.80;672.10;;;1.10;99.90;;;;;;5003160;28;20073;-80
2024/01/07 01:34:08;;;;;;;718.25;660.63;;;0.80;99.90;;;;;;5001979;28;20079;-81
2024/01/07 01:36:34;;;;;;;669.13;619.85;;;1.00;99.90;;;;;;4983957;28;20078;-80
2024/01/07 01:38:59;;;;;;;711.15;657.65;;;-0.10;99.90;;;;;;5003690;28;20057;-81
2024/01/07 01:41:25;;;;;;;665.55;616.35;;;0.20;99.90;;;;;;4982476;28;20540;-80
2024/01/07 01:43:51;;;;;;;720.25;666.92;;;0.90;99.90;;;;;;4995727;28;20091;-80
2024/01/07 01:46:17;;;;;;;705.17;652.28;;;0.10;99.90;;;;;;4992184;28;20046;-81
2024/01/07 01:48:43;;;;;;;640.38;593.38;;;-0.40;99.90;;;;;;5005624;28;20046;-81
2024/01/07 01:51:09;;;;;;;643.58;596.75;;;0.80;99.90;;;;;;4984553;28;20386;-80
2024/01/07 01:53:35;;;;;;;638.70;591.95;;;-0.30;99.90;;;;;;4999926;28;20046;-81
2024/01/07 01:56:02;;;;;;;729.45;674.55;;;0.80;99.90;;;;;;5002087;28;20045;-81
2024/01/07 01:58:29;;;;;;;741.08;682.55;;;0.30;99.90;;;;;;5001646;28;20602;-81
2024/01/07 02:00:55;;;;;;;723.35;668.47;;;0.80;99.90;;;;;;5002152;28;20046;-81
2024/01/07 02:03:21;;;;;;;744.03;687.33;;;0.40;99.90;;;;;;5001677;28;20064;-80
2024/01/07 02:05:49;;;;;;;698.28;646.10;;;0.00;99.90;;;;;;5026107;28;20046;-81
2024/01/07 02:08:14;;;;;;;726.00;672.10;;;0.40;99.90;;;;;;5005480;28;20049;-81
2024/01/07 02:10:40;;;;;;;816.30;752.42;;;0.60;99.90;;;;;;5006140;28;20469;-80
2024/01/07 02:13:06;;;;;;;801.80;739.65;;;0.10;99.90;;;;;;5005263;28;20500;-80
2024/01/07 02:15:33;;;;;;;822.20;757.03;;;-0.40;99.90;;;;;;4988372;28;20077;-80
2024/01/07 02:17:59;;;;;;;803.85;737.60;;;0.60;99.90;;;;;;4970064;28;20046;-80
2024/01/07 02:20:24;;;;;;;749.88;693.10;;;0.70;99.90;;;;;;4986247;28;20096;-81
2024/01/07 02:22:51;;;;;;;747.85;692.17;;;0.50;99.90;;;;;;4984599;28;20054;-80
2024/01/07 02:25:17;;;;;;;752.45;694.83;;;0.70;99.90;;;;;;4985585;28;20061;-81
2024/01/07 02:27:42;;;;;;;726.15;672.22;;;0.80;99.90;;;;;;4986030;28;20054;-80
2024/01/07 02:30:08;;;;;;;755.13;698.33;;;0.00;99.90;;;;;;4984627;28;20042;-81
2024/01/07 02:32:35;;;;;;;726.08;671.88;;;-0.40;99.90;;;;;;4988358;28;20374;-81
2024/01/07 02:35:02;;;;;;;688.67;638.30;;;-0.40;99.90;;;;;;5002855;28;20053;-80
2024/01/07 02:37:27;;;;;;;665.92;617.08;;;-0.40;99.90;;;;;;4990553;28;20054;-81
2024/01/07 02:39:53;;;;;;;713.85;660.72;;;0.10;99.90;;;;;;4992932;28;20086;-81
2024/01/07 02:42:19;;;;;;;631.15;584.80;;;0.80;99.90;;;;;;4993005;28;20485;-81
2024/01/07 02:44:44;;;;;;;598.90;555.80;;;0.00;99.90;;;;;;5000303;28;20039;-80
2024/01/07 02:47:10;;;;;;;645.53;598.42;;;-0.10;99.90;;;;;;4987322;28;20090;-81
2024/01/07 02:49:36;;;;;;;618.78;574.25;;;0.80;99.90;;;;;;4984800;28;20435;-81
2024/01/07 02:52:01;;;;;;;557.47;518.67;;;1.00;99.90;;;;;;5024101;28;20049;-81
2024/01/07 02:54:27;;;;;;;497.33;464.48;;;-0.40;99.90;;;;;;4991910;28;20046;-81
2024/01/07 02:56:53;;;;;;;567.33;528.03;;;-0.30;99.90;;;;;;5004712;28;20074;-81
2024/01/07 02:59:19;;;;;;;519.00;483.92;;;0.60;99.90;;;;;;5004765;28;20406;-80
2024/01/07 03:01:45;;;;;;;590.13;548.30;;;0.40;99.90;;;;;;5037230;28;20389;-81
2024/01/07 03:04:13;;;;;;;464.95;434.45;;;0.80;99.90;;;;;;5005445;28;20061;-81
2024/01/07 03:06:39;;;;;;;503.90;469.17;;;0.30;99.90;;;;;;5003147;28;20042;-80
2024/01/07 03:09:05;;;;;;;533.60;496.75;;;0.30;99.90;;;;;;5006332;28;20057;-81
2024/01/07 03:11:30;;;;;;;514.92;480.00;;;0.40;99.90;;;;;;5003355;28;20038;-81
2024/01/07 03:13:56;;;;;;;497.80;464.25;;;0.20;99.90;;;;;;5004771;28;20120;-80
2024/01/07 03:16:23;;;;;;;456.48;426.92;;;-0.30;99.90;;;;;;5005890;28;20350;-81
2024/01/07 03:18:49;;;;;;;428.38;401.27;;;0.40;99.90;;;;;;5000758;28;20375;-81
2024/01/07 03:21:19;;;;;;;396.00;371.27;;;0.40;99.90;;;;;;4997184;28;20056;-81
2024/01/07 03:23:45;;;;;;;508.50;473.77;;;0.40;99.90;;;;;;5003424;28;20041;-81
2024/01/07 03:26:12;;;;;;;436.92;409.25;;;-0.20;99.90;;;;;;5003974;28;20136;-80
2024/01/07 03:28:37;;;;;;;525.42;489.30;;;-0.30;99.90;;;;;;4997644;28;20090;-81
2024/01/07 03:31:12;;;;;;;494.25;461.08;;;0.00;99.90;;;;;;4991372;28;20157;-80
2024/01/07 03:33:38;;;;;;;457.55;428.15;;;-0.20;99.90;;;;;;5003824;28;20485;-80
2024/01/07 03:36:08;;;;;;;453.65;423.95;;;-0.30;99.90;;;;;;4980902;28;20140;-80
2024/01/07 03:38:34;;;;;;;491.17;458.30;;;-0.40;99.90;;;;;;4981755;28;20558;-81
2024/01/07 03:41:00;;;;;;;433.58;406.10;;;-0.40;99.90;;;;;;5004795;28;20050;-80
2024/01/07 03:43:26;;;;;;;504.30;470.63;;;0.80;99.90;;;;;;4993175;28;20405;-80
2024/01/07 03:45:51;;;;;;;474.60;442.70;;;0.30;99.90;;;;;;5000242;28;20041;-80
2024/01/07 03:48:17;;;;;;;445.80;417.05;;;0.90;99.90;;;;;;4991316;28;20054;-80
2024/01/07 03:50:43;;;;;;;491.88;458.33;;;0.90;99.90;;;;;;4985508;28;20074;-80
2024/01/07 03:53:09;;;;;;;479.67;447.65;;;0.60;99.90;;;;;;4995512;28;20058;-80
2024/01/07 03:55:34;;;;;;;433.77;405.73;;;-0.30;99.90;;;;;;5036463;28;20520;-80
2024/01/07 03:58:00;;;;;;;483.95;451.55;;;-0.30;99.90;;;;;;4992250;28;20046;-80
2024/01/07 04:00:26;;;;;;;437.08;409.15;;;-0.20;99.90;;;;;;5016027;28;20446;-80
2024/01/07 04:02:52;;;;;;;435.60;407.88;;;0.50;99.90;;;;;;4984662;28;20050;-80
2024/01/07 04:05:17;;;;;;;399.48;374.52;;;1.00;99.90;;;;;;4986154;28;20103;-80
2024/01/07 04:07:43;;;;;;;460.98;430.88;;;0.50;99.90;;;;;;4984639;28;20149;-80
2024/01/07 04:10:09;;;;;;;503.15;468.05;;;-0.30;99.90;;;;;;4985582;28;20042;-80
2024/01/07 04:12:36;;;;;;;388.15;364.05;;;0.90;99.90;;;;;;4984620;28;20050;-80
2024/01/07 04:15:01;;;;;;;485.00;453.13;;;0.60;99.90;;;;;;4985914;28;20897;-81
2024/01/07 04:17:27;;;;;;;429.20;402.02;;;0.30;99.90;;;;;;4984175;28;20089;-80
2024/01/07 04:19:54;;;;;;;407.58;381.80;;;0.20;99.90;;;;;;4985448;28;20034;-80
2024/01/07 04:22:20;;;;;;;361.52;339.20;;;0.40;99.90;;;;;;4982320;28;20481;-80
2024/01/07 04:24:45;;;;;;;360.05;337.75;;;0.70;99.90;;;;;;4997558;28;20054;-80
2024/01/07 04:27:11;;;;;;;424.85;397.35;;;0.60;99.90;;;;;;5002179;28;20449;-80
2024/01/07 04:29:37;;;;;;;360.13;338.10;;;0.30;99.90;;;;;;4987837;28;20107;-80
2024/01/07 04:32:03;;;;;;;364.05;341.75;;;0.30;99.90;;;;;;4974200;28;20050;-80
2024/01/07 04:34:28;;;;;;;370.98;347.98;;;-0.40;99.90;;;;;;5002635;28;20564;-81
2024/01/07 04:36:54;;;;;;;333.17;313.27;;;-0.40;99.90;;;;;;5002767;28;20129;-80
2024/01/07 04:39:20;;;;;;;336.27;315.98;;;0.80;99.90;;;;;;4986247;28;20045;-81
2024/01/07 04:41:45;;;;;;;296.95;279.27;;;0.20;99.90;;;;;;5002257;28;20050;-80
2024/01/07 04:44:11;;;;;;;344.35;322.70;;;0.20;99.90;;;;;;5001892;28;20145;-80
2024/01/07 04:46:43;;;;;;;347.83;326.45;;;-0.40;99.90;;;;;;5002635;28;20102;-80
2024/01/07 04:49:08;;;;;;;337.33;316.92;;;0.00;99.90;;;;;;4970756;28;20050;-81
2024/01/07 04:51:36;;;;;;;349.90;328.30;;;0.70;99.90;;;;;;4982141;28;20053;-81
2024/01/07 04:54:02;;;;;;;423.77;396.92;;;0.50;99.90;;;;;;4972848;28;20420;-79
2024/01/07 04:56:28;;;;;;;411.38;385.42;;;0.20;99.90;;;;;;4994636;28;20572;-80
2024/01/07 04:58:53;;;;;;;482.90;450.63;;;0.30;99.90;;;;;;5004587;28;20045;-80
2024/01/07 05:01:19;;;;;;;393.75;369.15;;;0.30;99.90;;;;;;5001870;28;20482;-80
2024/01/07 05:03:45;;;;;;;461.08;430.85;;;0.00;99.90;;;;;;5021422;28;20042;-80
2024/01/07 05:06:11;;;;;;;428.02;400.00;;;-0.20;99.90;;;;;;5003258;28;20042;-80
2024/01/07 05:08:37;;;;;;;465.35;434.63;;;-0.40;99.90;;;;;;5000815;28;20057;-80
2024/01/07 05:11:04;;;;;;;450.27;421.05;;;-0.20;99.90;;;;;;5002668;28;20558;-80
2024/01/07 05:13:30;;;;;;;374.63;351.77;;;0.00;99.90;;;;;;5001641;28;20524;-80
2024/01/07 05:15:56;;;;;;;393.38;368.92;;;-0.30;99.90;;;;;;5001149;28;20118;-80
2024/01/07 05:18:22;;;;;;;433.55;406.38;;;-0.30;99.90;;;;;;5002654;28;20041;-81
2024/01/07 05:20:48;;;;;;;467.88;437.00;;;0.10;99.90;;;;;;5002510;28;20050;-81
2024/01/07 05:23:14;;;;;;;386.60;363.02;;;0.10;99.90;;;;;;4990069;28;20062;-81
2024/01/07 05:25:43;;;;;;;375.63;352.77;;;0.10;99.90;;;;;;4990105;28;20152;-81
2024/01/07 05:28:09;;;;;;;499.83;464.58;;;0.40;99.90;;;;;;5001701;28;20050;-80
2024/01/07 05:30:34;;;;;;;369.35;347.00;;;0.80;99.90;;;;;;4998585;28;20042;-81
2024/01/07 05:33:00;;;;;;;381.83;357.65;;;0.80;99.90;;;;;;4982145;28;20379;-81
2024/01/07 05:35:26;;;;;;;352.35;330.95;;;-0.30;99.90;;;;;;4993654;28;20050;-81
2024/01/07 05:37:52;;;;;;;305.30;286.50;;;-0.30;99.90;;;;;;5034580;28;20493;-80
2024/01/07 05:40:17;;;;;;;291.45;274.40;;;0.90;99.90;;;;;;4987213;28;20068;-80
2024/01/07 05:42:43;;;;;;;359.42;336.88;;;1.00;99.90;;;;;;5001095;28;20497;-81
2024/01/07 05:45:09;;;;;;;332.80;312.35;;;0.90;99.90;;;;;;4986561;28;20106;-80
2024/01/07 05:47:35;;;;;;;241.38;226.90;;;-0.30;99.90;;;;;;5010879;28;20402;-81
2024/01/07 05:50:01;;;;;;;281.38;264.77;;;-0.30;99.90;;;;;;5006052;28;20134;-80
2024/01/07 05:52:27;;;;;;;202.13;190.48;;;0.50;99.90;;;;;;4990624;28;20200;-80
2024/01/07 05:54:53;;;;;;;220.43;207.73;;;1.00;99.90;;;;;;5007444;28;20129;-81
2024/01/07 05:57:19;;;;;;;220.95;207.95;;;-0.30;99.90;;;;;;5005556;28;20046;-80
2024/01/07 05:59:45;;;;;;;267.27;251.18;;;1.10;99.90;;;;;;5006139;28;20046;-81
2024/01/07 06:02:12;;;;;;;293.58;275.70;;;0.80;99.90;;;;;;4987611;28;20042;-80
2024/01/07 06:04:38;;;;;;;304.02;285.83;;;0.40;99.90;;;;;;5005063;28;20050;-80
2024/01/07 06:07:04;;;;;;;227.93;214.45;;;0.80;99.90;;;;;;5003101;28;20034;-80
2024/01/07 06:09:30;;;;;;;221.18;207.68;;;-0.30;99.90;;;;;;5004670;28;20046;-80
2024/01/07 06:11:55;;;;;;;228.38;215.32;;;0.90;99.90;;;;;;5004594;28;20574;-80
2024/01/07 06:14:22;;;;;;;209.43;197.13;;;0.90;99.90;;;;;;5004493;28;20222;-81
2024/01/07 06:16:48;;;;;;;286.20;269.08;;;1.10;99.90;;;;;;5006348;28;20477;-80
2024/01/07 06:19:15;;;;;;;257.77;242.63;;;0.20;99.90;;;;;;5002837;28;20062;-81
2024/01/07 06:21:41;;;;;;;285.23;268.23;;;0.70;99.90;;;;;;4983900;28;20050;-80
2024/01/07 06:24:08;;;;;;;279.95;263.08;;;-0.30;99.90;;;;;;5000449;28;20054;-81
2024/01/07 06:26:34;;;;;;;249.43;233.95;;;0.80;99.90;;;;;;4997395;28;20038;-80
2024/01/07 06:29:00;;;;;;;243.68;229.07;;;0.00;99.90;;;;;;4995466;28;20034;-80
2024/01/07 06:31:26;;;;;;;193.32;181.52;;;0.70;99.90;;;;;;5004028;28;20057;-81
2024/01/07 06:33:52;;;;;;;212.52;199.77;;;-0.20;99.90;;;;;;5004955;28;20046;-80
2024/01/07 06:36:18;;;;;;;181.82;171.23;;;0.50;99.90;;;;;;5003533;28;20111;-81
2024/01/07 06:38:44;;;;;;;228.75;214.45;;;0.30;99.90;;;;;;5003632;28;20399;-80
2024/01/07 06:41:11;;;;;;;187.85;176.60;;;0.30;99.90;;;;;;4996431;28;20053;-80
2024/01/07 06:43:37;;;;;;;165.07;155.07;;;0.20;99.90;;;;;;5002852;28;20366;-80
2024/01/07 06:46:03;;;;;;;144.40;135.63;;;0.50;99.90;;;;;;5005172;28;20054;-80
2024/01/07 06:48:30;;;;;;;127.13;119.70;;;-0.30;99.90;;;;;;4999683;28;20050;-81
2024/01/07 06:50:55;;;;;;;144.25;135.68;;;0.80;99.90;;;;;;5002743;28;20038;-80
2024/01/07 06:53:21;;;;;;;186.43;175.32;;;0.90;99.90;;;;;;5003814;28;20073;-80
2024/01/07 06:55:47;;;;;;;145.18;136.63;;;0.00;99.90;;;;;;5003218;28;20087;-80
2024/01/07 06:58:13;;;;;;;148.98;139.73;;;0.90;99.90;;;;;;5005741;28;20056;-80
2024/01/07 07:00:38;;;;;;;141.65;133.18;;;-0.40;99.90;;;;;;4998481;28;20587;-81
2024/01/07 07:03:06;;;;;;;119.97;112.88;;;0.00;99.90;;;;;;4997111;28;20157;-81
2024/01/07 07:05:32;;;;;;;188.98;177.90;;;-0.10;99.90;;;;;;5002934;28;20049;-81
2024/01/07 07:07:57;;;;;;;100.85;95.00;;;-0.50;99.90;;;;;;4995111;28;20469;-81
2024/01/07 07:10:23;;;;;;;98.55;92.82;;;0.30;99.90;;;;;;5002269;28;20565;-81
2024/01/07 07:12:50;;;;;;;175.18;164.57;;;0.00;99.90;;;;;;5030331;28;20461;-81
2024/01/07 07:15:16;;;;;;;133.77;125.93;;;0.10;99.90;;;;;;5004360;28;20431;-81
2024/01/07 07:17:42;;;;;;;195.15;182.95;;;0.40;99.90;;;;;;5003282;28;20046;-80
2024/01/07 07:20:09;;;;;;;114.85;107.88;;;0.30;99.90;;;;;;5004551;28;20102;-81
2024/01/07 07:22:35;;;;;;;125.18;117.38;;;-0.70;99.90;;;;;;5002726;28;20137;-81
2024/01/07 07:25:00;;;;;;;169.02;159.18;;;-0.10;99.90;;;;;;5034904;28;20133;-81
2024/01/07 07:27:26;;;;;;;132.65;124.82;;;-0.10;99.90;;;;;;5004241;28;20042;-81
2024/01/07 07:29:52;;;;;;;116.15;109.15;;;-0.30;99.90;;;;;;5002075;28;20057;-81
2024/01/07 07:32:18;;;;;;;153.15;144.25;;;-0.90;99.90;;;;;;5003159;28;20090;-81
2024/01/07 07:34:43;;;;;;;186.55;174.60;;;-0.40;99.90;;;;;;5002473;28;20063;-81
2024/01/07 07:37:10;;;;;;;156.00;147.02;;;-0.90;99.90;;;;;;4986546;28;20176;-81
2024/01/07 07:39:35;;;;;;;157.35;148.15;;;-0.90;99.90;;;;;;4967693;28;20062;-81
2024/01/07 07:42:01;;;;;;;186.35;175.60;;;-0.70;99.90;;;;;;5005704;28;20041;-81
2024/01/07 07:44:27;;;;;;;134.18;126.38;;;-1.00;99.90;;;;;;5002049;28;20655;-81
2024/01/07 07:46:53;;;;;;;205.18;193.02;;;-0.60;99.90;;;;;;5003050;28;20128;-81
2024/01/07 07:49:18;;;;;;;245.80;230.85;;;-1.00;99.90;;;;;;4984837;28;20038;-81
2024/01/07 07:51:44;;;;;;;184.93;174.02;;;0.10;99.90;;;;;;5030325;28;20177;-82
2024/01/07 07:54:10;;;;;;;187.32;176.15;;;0.10;99.90;;;;;;5003577;28;20077;-82
2024/01/07 07:56:36;;;;;;;196.32;184.88;;;-0.20;99.90;;;;;;5004225;28;20513;-82
2024/01/07 07:59:02;;;;;;;222.43;209.25;;;0.10;99.90;;;;;;5004902;28;20485;-82
2024/01/07 08:01:28;;;;;;;339.98;318.40;;;0.50;99.90;;;;;;5002661;28;20480;-82
2024/01/07 08:03:55;;;;;;;152.77;143.85;;;-0.80;99.90;;;;;;5000470;28;20057;-82
2024/01/07 08:06:21;;;;;;;155.35;146.30;;;-0.80;99.90;;;;;;4986852;28;20133;-81
2024/01/07 08:08:47;;;;;;;150.02;141.05;;;-0.70;99.90;;;;;;5016301;28;20446;-82
2024/01/07 08:11:13;;;;;;;122.60;115.35;;;-0.40;99.90;;;;;;4986347;28;20077;-82
2024/01/07 08:13:39;;;;;;;118.38;111.60;;;-0.60;99.90;;;;;;5003287;28;20050;-81
2024/01/07 08:16:05;;;;;;;120.40;113.43;;;-0.60;99.90;;;;;;5002547;28;20053;-82
2024/01/07 08:18:31;;;;;;;166.32;156.55;;;-0.50;99.90;;;;;;5019330;28;20050;-82
2024/01/07 08:20:57;;;;;;;112.90;106.32;;;0.10;99.90;;;;;;5002276;28;20038;-82
2024/01/07 08:23:24;;;;;;;70.93;66.70;;;0.00;99.90;;;;;;5000037;28;20057;-82
2024/01/07 08:25:51;;;;;;;102.13;96.15;;;0.70;99.90;;;;;;4986127;28;20049;-82
2024/01/07 08:28:17;;;;;;;124.00;116.53;;;0.20;99.90;;;;;;4992814;28;20126;-82
2024/01/07 08:30:44;;;;;;;125.07;117.65;;;0.50;99.90;;;;;;5003757;28;20061;-82
2024/01/07 08:33:10;;;;;;;124.55;117.13;;;0.20;99.90;;;;;;4989541;28;20050;-82
2024/01/07 08:35:36;;;;;;;90.97;85.57;;;-0.40;99.90;;;;;;4985131;28;20092;-81
2024/01/07 08:38:03;;;;;;;115.97;109.00;;;-0.40;99.90;;;;;;4986718;28;20142;-81
2024/01/07 08:40:29;;;;;;;86.90;81.80;;;-0.40;99.90;;;;;;4985166;28;20046;-81
2024/01/07 08:42:55;;;;;;;137.40;129.25;;;-0.40;99.90;;;;;;4985258;28;20555;-82
2024/01/07 08:45:21;;;;;;;104.68;98.55;;;0.80;99.90;;;;;;4984880;28;20038;-82
2024/01/07 08:47:47;;;;;;;82.88;77.85;;;0.20;99.90;;;;;;4984257;28;20492;-81
2024/01/07 08:50:12;;;;;;;130.60;122.88;;;0.70;99.90;;;;;;4980784;28;20049;-82
2024/01/07 08:52:38;;;;;;;70.55;66.40;;;-0.20;99.90;;;;;;4988181;28;20041;-82
2024/01/07 08:55:06;;;;;;;87.60;82.55;;;0.40;99.90;;;;;;5003025;28;20053;-82
2024/01/07 08:57:32;;;;;;;143.23;134.77;;;-0.20;99.90;;;;;;4990671;28;20042;-81
2024/01/07 08:59:58;;;;;;;67.72;63.70;;;0.10;99.90;;;;;;5001313;28;20034;-80
2024/01/07 09:02:25;;;;;;;61.92;58.33;;;-0.20;99.90;;;;;;5011200;28;20546;-82
2024/01/07 09:04:51;;;;;;;68.10;64.07;;;1.10;99.90;;;;;;5002960;28;20058;-82
2024/01/07 09:07:19;;;;;;;57.70;53.97;;;0.30;99.90;;;;;;4997586;28;20180;-81
2024/01/07 09:09:44;;;;;;;65.78;61.78;;;0.10;99.90;;;;;;4987621;28;20072;-81
2024/01/07 09:12:10;;;;;;;77.32;72.80;;;-0.10;99.90;;;;;;4978426;28;20047;-83
2024/01/07 09:14:38;;;;;;;60.00;56.47;;;-0.10;99.90;;;;;;4979266;28;20042;-82
2024/01/07 09:17:04;;;;;;;46.30;43.50;;;0.20;99.90;;;;;;4992848;28;20051;-82
2024/01/07 09:19:29;;;;;;;59.50;55.95;;;0.40;99.90;;;;;;4999901;28;20050;-81
2024/01/07 09:21:55;;;;;;;55.60;52.28;;;0.60;99.90;;;;;;4990004;28;20378;-82
2024/01/07 09:24:22;;;;;;;38.88;36.35;;;0.70;99.90;;;;;;4986720;28;20137;-82
2024/01/07 09:26:48;;;;;;;45.88;43.10;;;0.00;99.90;;;;;;4983464;28;20135;-82
2024/01/07 09:29:13;;;;;;;50.50;47.53;;;1.30;99.90;;;;;;5028506;28;20481;-82
2024/01/07 09:31:40;;;;;;;52.95;49.72;;;0.00;99.90;;;;;;4983692;28;20038;-81
2024/01/07 09:34:06;;;;;;;62.88;59.13;;;0.00;99.90;;;;;;4993783;28;20037;-82
2024/01/07 09:36:33;;;;;;;33.47;31.23;;;1.40;99.90;;;;;;4998484;28;20120;-82
2024/01/07 09:38:59;;;;;;;32.60;30.50;;;1.00;99.90;;;;;;4988089;28;20038;-81
2024/01/07 09:41:24;;;;;;;49.53;46.53;;;0.60;99.90;;;;;;4993774;28;20042;-82
2024/01/07 09:43:53;;;;;;;49.35;46.13;;;0.10;99.90;;;;;;5003616;28;20539;-81
2024/01/07 09:46:19;;;;;;;49.90;46.85;;;1.50;99.90;;;;;;4994431;28;20056;-81
2024/01/07 09:48:45;;;;;;;78.55;74.10;;;0.80;99.90;;;;;;4991107;28;20046;-82
2024/01/07 09:51:11;;;;;;;76.47;71.93;;;1.30;99.90;;;;;;4998999;28;20043;-81
2024/01/07 09:53:40;;;;;;;82.28;77.43;;;0.20;99.90;;;;;;4972368;28;20086;-81
2024/01/07 09:56:15;;;;;;;79.47;74.50;;;1.50;99.90;;;;;;4975530;28;20050;-83
2024/01/07 09:58:42;;;;;;;90.85;85.05;;;0.90;99.90;;;;;;4985923;28;20047;-81
2024/01/07 10:01:09;;;;;;;46.03;42.80;;;1.60;99.90;;;;;;4987957;28;20117;-81
2024/01/07 10:03:35;;;;;;;31.60;29.65;;;0.30;99.90;;;;;;4982325;28;20108;-81
2024/01/07 10:06:01;;;;;;;25.45;23.55;;;0.40;99.90;;;;;;4987729;28;20034;-81
2024/01/07 10:08:27;;;;;;;9.75;8.95;;;0.40;99.90;;;;;;4986016;28;20468;-81
2024/01/07 10:10:53;;;;;;;10.73;9.88;;;0.80;99.90;;;;;;4986789;28;20171;-81
2024/01/07 10:13:20;;;;;;;11.30;10.30;;;1.60;99.90;;;;;;5008183;28;20054;-81
2024/01/07 10:15:46;;;;;;;13.27;12.18;;;1.60;99.90;;;;;;4983791;28;20133;-81
2024/01/07 10:18:14;;;;;;;10.93;9.88;;;1.70;99.90;;;;;;4975712;28;20043;-80
2024/01/07 10:20:39;;;;;;;14.32;13.05;;;0.90;99.90;;;;;;4984659;28;20037;-81
2024/01/07 10:23:07;;;;;;;12.90;11.75;;;1.30;99.90;;;;;;4996970;28;20611;-81
2024/01/07 10:25:35;;;;;;;9.73;8.63;;;0.50;99.90;;;;;;4994881;28;20050;-81
2024/01/07 10:28:01;;;;;;;14.93;13.75;;;1.00;99.90;;;;;;4994969;28;20057;-80
2024/01/07 10:30:28;;;;;;;11.35;9.55;;;0.40;99.90;;;;;;5030302;28;20050;-81
2024/01/07 10:32:58;;;;;;;11.68;10.63;;;0.30;99.90;;;;;;4993199;28;20051;-81
2024/01/07 10:35:32;;;;;;;10.30;9.38;;;1.30;99.90;;;;;;4988468;28;20061;-78
2024/01/07 10:37:59;;;;;;;12.48;11.25;;;0.30;99.90;;;;;;5011191;28;20086;-82
2024/01/07 10:40:27;;;;;;;10.38;9.55;;;0.30;99.90;;;;;;4990032;28;20049;-81
2024/01/07 10:42:54;;;;;;;11.13;10.32;;;1.40;99.90;;;;;;4981481;28;20047;-81
2024/01/07 10:45:21;;;;;;;17.05;15.65;;;0.30;99.90;;;;;;4994852;28;20039;-82
2024/01/07 10:47:51;;;;;;;13.88;12.68;;;0.40;99.90;;;;;;4992061;28;20045;-81
2024/01/07 10:50:18;;;;;;;14.85;13.63;;;0.60;99.90;;;;;;4981824;28;20125;-81
2024/01/07 10:52:51;;;;;;;16.65;15.25;;;0.60;99.90;;;;;;4975147;28;20130;-82
2024/01/07 10:55:18;;;;;;;13.60;12.30;;;0.60;99.90;;;;;;5012687;28;20058;-81
2024/01/07 10:57:47;;;;;;;12.27;11.32;;;0.70;99.90;;;;;;5006649;28;20393;-82
2024/01/07 11:00:19;;;;;;;15.18;13.85;;;0.70;99.90;;;;;;4986786;28;20058;-81
2024/01/07 11:02:50;;;;;;;16.27;14.98;;;0.80;99.90;;;;;;4981586;28;20384;-81
2024/01/07 11:05:27;;;;;;;12.35;11.35;;;0.80;99.90;;;;;;4998058;28;20046;-81
2024/01/07 11:08:03;;;;;;;14.88;13.48;;;0.90;99.90;;;;;;4983006;28;20117;-81
2024/01/07 11:10:38;;;;;;;14.02;12.85;;;1.10;99.90;;;;;;4999330;28;20054;-81
2024/01/07 11:13:04;;;;;;;68.85;64.18;;;1.30;99.90;;;;;;4988593;28;20041;-82
2024/01/07 11:15:49;;;;;;;17.55;16.00;;;1.10;99.90;;;;;;4989814;28;20094;-81
2024/01/07 11:18:18;;;;;;;26.05;24.20;;;0.70;99.90;;;;;;4965469;28;20082;-81
2024/01/07 11:20:46;;;;;;;21.58;20.00;;;1.00;99.90;;;;;;4986193;28;20053;-81
2024/01/07 11:23:30;;;;;;;23.88;22.10;;;1.10;99.90;;;;;;5008693;28;20108;-81
2024/01/07 11:25:57;;;;;;;24.92;22.90;;;0.40;99.90;;;;;;4986849;28;20054;-81
2024/01/07 11:28:43;;;;;;;27.15;25.10;;;0.40;99.90;;;;;;4993001;28;20053;-81
2024/01/07 11:31:09;;;;;;;36.97;34.55;;;0.40;99.90;;;;;;4986285;28;20638;-81
2024/01/07 11:33:38;;;;;;;31.55;29.15;;;0.40;99.90;;;;;;4994460;28;20620;-80
2024/01/07 11:36:05;;;;;;;45.42;42.45;;;0.90;99.90;;;;;;4997722;28;20089;-81
2024/01/07 11:38:31;;;;;;;49.80;46.17;;;0.50;99.90;;;;;;5002033;28;20549;-81
2024/01/07 11:40:58;;;;;;;55.53;51.40;;;0.60;99.90;;;;;;4988458;28;20046;-81
2024/01/07 11:43:25;;;;;;;51.53;47.85;;;0.90;99.90;;;;;;5003108;28;20065;-81
2024/01/07 11:45:51;;;;;;;42.70;38.88;;;0.70;99.90;;;;;;5004106;28;20571;-81
2024/01/07 11:48:18;;;;;;;47.75;44.67;;;0.80;99.90;;;;;;4989243;28;20516;-81
2024/01/07 11:50:44;;;;;;;44.63;41.55;;;0.70;99.90;;;;;;4984028;28;20089;-81
2024/01/07 11:53:12;;;;;;;49.55;46.05;;;1.50;99.90;;;;;;4987361;28;20182;-81
2024/01/07 11:55:38;;;;;;;47.42;43.35;;;1.50;99.90;;;;;;4999309;28;20030;-81
2024/01/07 11:58:04;;;;;;;59.78;55.80;;;0.90;99.90;;;;;;4970079;28;20510;-81
2024/01/07 12:00:32;;;;;;;45.97;42.95;;;0.70;99.90;;;;;;4976730;28;20047;-81
2024/01/07 12:03:01;;;;;;;64.00;59.83;;;1.40;99.90;;;;;;4994341;28;20050;-81
2024/01/07 12:05:27;;;;;;;65.72;61.47;;;0.70;99.90;;;;;;4986188;28;20057;-81
2024/01/07 12:07:53;;;;;;;51.03;47.80;;;1.30;99.90;;;;;;4990259;28;20128;-81
2024/01/07 12:10:19;;;;;;;72.53;67.82;;;0.70;99.90;;;;;;4995210;28;20473;-81
2024/01/07 12:12:45;;;;;;;61.00;57.05;;;0.70;99.90;;;;;;5018100;28;20050;-81
2024/01/07 12:15:12;;;;;;;61.72;57.65;;;0.80;99.90;;;;;;4980294;28;20133;-81
2024/01/07 12:17:39;;;;;;;59.35;55.17;;;0.70;99.90;;;;;;4975173;28;20053;-81